sensor_id;sensor_type;location;lat;lon;timestamp;P1;durP1;ratioP1;P2;durP2;ratioP2
12181;SDS011;6154;51.550;12.138;2022-10-16T00:01:37;0.40;;;0.40;;
12181;SDS011;6154;51.550;12.138;2022-10-16T00:04:06;0.45;;;0.40;;
12181;SDS011;6154;51.550;12.138;2022-10-16T00:06:34;0.32;;;0.32;;
12181;SDS011;6154;51.550;12.138;2022-10-16T00:09:04;0.45;;;0.40;;
12181;SDS011;6154;51.550;12.138;2022-10-16T00:11:34;0.30;;;0.30;;
12181;SDS011;6154;51.550;12.138;2022-10-16T00:14:05;0.95;;;0.40;;
12181;SDS011;6154;51.550;12.138;2022-10-16T00:16:38;1.75;;;0.37;;
12181;SDS011;6154;51.550;12.138;2022-10-16T00:19:06;1.45;;;0.40;;
12181;SDS011;6154;51.550;12.138;2022-10-16T00:21:34;1.05;;;0.30;;
12181;SDS011;6154;51.550;12.138;2022-10-16T00:24:23;0.30;;;0.30;;
12181;SDS011;6154;51.550;12.138;2022-10-16T00:26:51;1.45;;;0.35;;
12181;SDS011;6154;51.550;12.138;2022-10-16T00:29:19;1.60;;;0.20;;
12181;SDS011;6154;51.550;12.138;2022-10-16T00:31:48;0.65;;;0.30;;
12181;SDS011;6154;51.550;12.138;2022-10-16T00:34:16;0.20;;;0.20;;
12181;SDS011;6154;51.550;12.138;2022-10-16T00:36:45;0.43;;;0.30;;
12181;SDS011;6154;51.550;12.138;2022-10-16T00:39:13;0.60;;;0.28;;
12181;SDS011;6154;51.550;12.138;2022-10-16T00:41:42;3.00;;;0.30;;
12181;SDS011;6154;51.550;12.138;2022-10-16T00:47:19;1.08;;;0.32;;
12181;SDS011;6154;51.550;12.138;2022-10-16T00:49:51;0.30;;;0.30;;
12181;SDS011;6154;51.550;12.138;2022-10-16T00:52:23;0.30;;;0.30;;
12181;SDS011;6154;51.550;12.138;2022-10-16T00:54:53;0.75;;;0.30;;
12181;SDS011;6154;51.550;12.138;2022-10-16T00:57:24;0.85;;;0.52;;
12181;SDS011;6154;51.550;12.138;2022-10-16T00:59:53;0.62;;;0.30;;
12181;SDS011;6154;51.550;12.138;2022-10-16T01:02:21;0.35;;;0.35;;
12181;SDS011;6154;51.550;12.138;2022-10-16T01:04:50;0.30;;;0.30;;
12181;SDS011;6154;51.550;12.138;2022-10-16T01:07:26;0.55;;;0.30;;
12181;SDS011;6154;51.550;12.138;2022-10-16T01:10:04;1.33;;;0.32;;
12181;SDS011;6154;51.550;12.138;2022-10-16T01:12:40;0.88;;;0.60;;
12181;SDS011;6154;51.550;12.138;2022-10-16T01:15:15;0.57;;;0.50;;
12181;SDS011;6154;51.550;12.138;2022-10-16T01:17:50;0.73;;;0.30;;
12181;SDS011;6154;51.550;12.138;2022-10-16T01:20:26;0.70;;;0.50;;
12181;SDS011;6154;51.550;12.138;2022-10-16T01:23:01;0.25;;;0.25;;
12181;SDS011;6154;51.550;12.138;2022-10-16T01:25:48;0.68;;;0.30;;
12181;SDS011;6154;51.550;12.138;2022-10-16T01:28:26;0.98;;;0.32;;
12181;SDS011;6154;51.550;12.138;2022-10-16T01:30:59;0.88;;;0.43;;
12181;SDS011;6154;51.550;12.138;2022-10-16T01:33:30;0.30;;;0.30;;
12181;SDS011;6154;51.550;12.138;2022-10-16T01:36:06;0.28;;;0.25;;
12181;SDS011;6154;51.550;12.138;2022-10-16T01:38:39;0.65;;;0.30;;
12181;SDS011;6154;51.550;12.138;2022-10-16T01:41:09;0.40;;;0.40;;
12181;SDS011;6154;51.550;12.138;2022-10-16T01:43:43;0.73;;;0.40;;
12181;SDS011;6154;51.550;12.138;2022-10-16T01:46:15;0.40;;;0.40;;
12181;SDS011;6154;51.550;12.138;2022-10-16T01:48:46;0.90;;;0.30;;
12181;SDS011;6154;51.550;12.138;2022-10-16T01:51:16;0.37;;;0.37;;
12181;SDS011;6154;51.550;12.138;2022-10-16T01:53:47;0.40;;;0.20;;
12181;SDS011;6154;51.550;12.138;2022-10-16T01:56:20;0.55;;;0.50;;
12181;SDS011;6154;51.550;12.138;2022-10-16T01:58:52;0.22;;;0.10;;
12181;SDS011;6154;51.550;12.138;2022-10-16T02:01:24;0.35;;;0.35;;
12181;SDS011;6154;51.550;12.138;2022-10-16T02:03:55;0.37;;;0.37;;
12181;SDS011;6154;51.550;12.138;2022-10-16T02:06:26;0.30;;;0.20;;
12181;SDS011;6154;51.550;12.138;2022-10-16T02:08:56;0.30;;;0.30;;
12181;SDS011;6154;51.550;12.138;2022-10-16T02:11:25;0.25;;;0.20;;
12181;SDS011;6154;51.550;12.138;2022-10-16T02:13:55;1.55;;;0.30;;
12181;SDS011;6154;51.550;12.138;2022-10-16T02:16:32;0.22;;;0.22;;
12181;SDS011;6154;51.550;12.138;2022-10-16T02:19:02;0.57;;;0.30;;
12181;SDS011;6154;51.550;12.138;2022-10-16T02:21:33;0.35;;;0.35;;
12181;SDS011;6154;51.550;12.138;2022-10-16T02:24:09;0.45;;;0.30;;
12181;SDS011;6154;51.550;12.138;2022-10-16T02:26:47;0.20;;;0.20;;
12181;SDS011;6154;51.550;12.138;2022-10-16T02:29:22;2.22;;;0.40;;
12181;SDS011;6154;51.550;12.138;2022-10-16T02:31:54;0.28;;;0.28;;
12181;SDS011;6154;51.550;12.138;2022-10-16T02:34:26;0.43;;;0.30;;
12181;SDS011;6154;51.550;12.138;2022-10-16T02:36:58;0.30;;;0.30;;
12181;SDS011;6154;51.550;12.138;2022-10-16T02:39:28;0.37;;;0.37;;
12181;SDS011;6154;51.550;12.138;2022-10-16T02:41:57;1.00;;;0.20;;
12181;SDS011;6154;51.550;12.138;2022-10-16T02:44:27;0.77;;;0.30;;
12181;SDS011;6154;51.550;12.138;2022-10-16T02:46:55;0.22;;;0.22;;
12181;SDS011;6154;51.550;12.138;2022-10-16T02:49:23;0.30;;;0.30;;
12181;SDS011;6154;51.550;12.138;2022-10-16T02:51:51;1.25;;;0.37;;
12181;SDS011;6154;51.550;12.138;2022-10-16T02:54:20;0.22;;;0.20;;
12181;SDS011;6154;51.550;12.138;2022-10-16T02:56:48;0.60;;;0.52;;
12181;SDS011;6154;51.550;12.138;2022-10-16T02:59:16;0.30;;;0.30;;
12181;SDS011;6154;51.550;12.138;2022-10-16T03:01:46;0.30;;;0.30;;
12181;SDS011;6154;51.550;12.138;2022-10-16T03:04:14;0.68;;;0.40;;
12181;SDS011;6154;51.550;12.138;2022-10-16T03:06:42;0.30;;;0.30;;
12181;SDS011;6154;51.550;12.138;2022-10-16T03:09:10;0.30;;;0.30;;
12181;SDS011;6154;51.550;12.138;2022-10-16T03:11:38;0.47;;;0.47;;
12181;SDS011;6154;51.550;12.138;2022-10-16T03:14:07;0.85;;;0.40;;
12181;SDS011;6154;51.550;12.138;2022-10-16T03:16:35;0.60;;;0.35;;
12181;SDS011;6154;51.550;12.138;2022-10-16T03:19:05;0.43;;;0.43;;
12181;SDS011;6154;51.550;12.138;2022-10-16T03:21:33;0.30;;;0.30;;
12181;SDS011;6154;51.550;12.138;2022-10-16T03:24:01;0.32;;;0.28;;
12181;SDS011;6154;51.550;12.138;2022-10-16T03:26:30;0.32;;;0.32;;
12181;SDS011;6154;51.550;12.138;2022-10-16T03:28:58;0.30;;;0.30;;
12181;SDS011;6154;51.550;12.138;2022-10-16T03:31:26;0.35;;;0.35;;
12181;SDS011;6154;51.550;12.138;2022-10-16T03:33:54;0.35;;;0.30;;
12181;SDS011;6154;51.550;12.138;2022-10-16T03:36:25;2.05;;;0.52;;
12181;SDS011;6154;51.550;12.138;2022-10-16T03:38:53;1.85;;;0.37;;
12181;SDS011;6154;51.550;12.138;2022-10-16T03:41:21;0.47;;;0.37;;
12181;SDS011;6154;51.550;12.138;2022-10-16T03:43:49;0.30;;;0.30;;
12181;SDS011;6154;51.550;12.138;2022-10-16T03:46:18;1.60;;;0.22;;
12181;SDS011;6154;51.550;12.138;2022-10-16T03:48:46;0.32;;;0.32;;
12181;SDS011;6154;51.550;12.138;2022-10-16T03:51:14;3.60;;;0.40;;
12181;SDS011;6154;51.550;12.138;2022-10-16T03:53:44;0.50;;;0.50;;
12181;SDS011;6154;51.550;12.138;2022-10-16T03:56:12;0.30;;;0.30;;
12181;SDS011;6154;51.550;12.138;2022-10-16T03:58:40;0.50;;;0.50;;
12181;SDS011;6154;51.550;12.138;2022-10-16T04:01:09;3.30;;;0.50;;
12181;SDS011;6154;51.550;12.138;2022-10-16T04:03:37;0.60;;;0.40;;
12181;SDS011;6154;51.550;12.138;2022-10-16T04:06:05;0.37;;;0.37;;
12181;SDS011;6154;51.550;12.138;2022-10-16T04:08:34;2.90;;;0.30;;
12181;SDS011;6154;51.550;12.138;2022-10-16T04:11:05;0.32;;;0.30;;
12181;SDS011;6154;51.550;12.138;2022-10-16T04:13:33;0.40;;;0.40;;
12181;SDS011;6154;51.550;12.138;2022-10-16T04:16:01;0.73;;;0.60;;
12181;SDS011;6154;51.550;12.138;2022-10-16T04:18:30;0.57;;;0.40;;
12181;SDS011;6154;51.550;12.138;2022-10-16T04:21:01;0.90;;;0.50;;
12181;SDS011;6154;51.550;12.138;2022-10-16T04:23:30;0.30;;;0.30;;
12181;SDS011;6154;51.550;12.138;2022-10-16T04:25:59;0.43;;;0.43;;
12181;SDS011;6154;51.550;12.138;2022-10-16T04:28:29;0.70;;;0.35;;
12181;SDS011;6154;51.550;12.138;2022-10-16T04:30:57;1.10;;;0.40;;
12181;SDS011;6154;51.550;12.138;2022-10-16T04:33:25;0.82;;;0.32;;
12181;SDS011;6154;51.550;12.138;2022-10-16T04:35:57;1.40;;;0.40;;
12181;SDS011;6154;51.550;12.138;2022-10-16T04:38:26;1.85;;;0.80;;
12181;SDS011;6154;51.550;12.138;2022-10-16T04:40:55;0.30;;;0.30;;
12181;SDS011;6154;51.550;12.138;2022-10-16T04:43:23;0.35;;;0.30;;
12181;SDS011;6154;51.550;12.138;2022-10-16T04:45:53;0.70;;;0.32;;
12181;SDS011;6154;51.550;12.138;2022-10-16T04:48:21;0.35;;;0.22;;
12181;SDS011;6154;51.550;12.138;2022-10-16T04:50:50;0.60;;;0.60;;
12181;SDS011;6154;51.550;12.138;2022-10-16T04:53:21;1.40;;;0.40;;
12181;SDS011;6154;51.550;12.138;2022-10-16T04:55:49;0.40;;;0.40;;
12181;SDS011;6154;51.550;12.138;2022-10-16T04:58:18;0.32;;;0.32;;
12181;SDS011;6154;51.550;12.138;2022-10-16T05:00:46;0.30;;;0.30;;
12181;SDS011;6154;51.550;12.138;2022-10-16T05:03:16;0.30;;;0.30;;
12181;SDS011;6154;51.550;12.138;2022-10-16T05:05:45;0.32;;;0.30;;
12181;SDS011;6154;51.550;12.138;2022-10-16T05:08:14;1.35;;;0.60;;
12181;SDS011;6154;51.550;12.138;2022-10-16T05:10:43;0.37;;;0.30;;
12181;SDS011;6154;51.550;12.138;2022-10-16T05:13:12;0.57;;;0.50;;
12181;SDS011;6154;51.550;12.138;2022-10-16T05:15:40;1.42;;;0.35;;
12181;SDS011;6154;51.550;12.138;2022-10-16T05:18:09;0.30;;;0.30;;
12181;SDS011;6154;51.550;12.138;2022-10-16T05:20:38;0.37;;;0.37;;
12181;SDS011;6154;51.550;12.138;2022-10-16T05:23:06;1.00;;;0.40;;
12181;SDS011;6154;51.550;12.138;2022-10-16T05:25:36;0.80;;;0.40;;
12181;SDS011;6154;51.550;12.138;2022-10-16T05:28:05;0.52;;;0.52;;
12181;SDS011;6154;51.550;12.138;2022-10-16T05:30:33;1.85;;;0.80;;
12181;SDS011;6154;51.550;12.138;2022-10-16T05:33:02;0.80;;;0.80;;
12181;SDS011;6154;51.550;12.138;2022-10-16T05:35:30;1.23;;;0.68;;
12181;SDS011;6154;51.550;12.138;2022-10-16T05:38:00;1.17;;;1.05;;
12181;SDS011;6154;51.550;12.138;2022-10-16T05:40:28;0.88;;;0.80;;
12181;SDS011;6154;51.550;12.138;2022-10-16T05:42:56;0.73;;;0.73;;
12181;SDS011;6154;51.550;12.138;2022-10-16T05:45:24;0.70;;;0.70;;
12181;SDS011;6154;51.550;12.138;2022-10-16T05:47:53;1.27;;;0.82;;
12181;SDS011;6154;51.550;12.138;2022-10-16T05:50:21;2.05;;;0.80;;
12181;SDS011;6154;51.550;12.138;2022-10-16T05:52:49;0.73;;;0.52;;
12181;SDS011;6154;51.550;12.138;2022-10-16T05:55:19;0.70;;;0.70;;
12181;SDS011;6154;51.550;12.138;2022-10-16T05:57:47;2.30;;;0.62;;
12181;SDS011;6154;51.550;12.138;2022-10-16T06:00:15;0.62;;;0.62;;
12181;SDS011;6154;51.550;12.138;2022-10-16T06:02:44;0.50;;;0.50;;
12181;SDS011;6154;51.550;12.138;2022-10-16T06:05:12;1.00;;;0.40;;
12181;SDS011;6154;51.550;12.138;2022-10-16T06:07:41;0.73;;;0.65;;
12181;SDS011;6154;51.550;12.138;2022-10-16T06:10:09;0.68;;;0.50;;
12181;SDS011;6154;51.550;12.138;2022-10-16T06:12:39;0.68;;;0.68;;
12181;SDS011;6154;51.550;12.138;2022-10-16T06:15:07;0.62;;;0.60;;
12181;SDS011;6154;51.550;12.138;2022-10-16T06:17:36;0.40;;;0.40;;
12181;SDS011;6154;51.550;12.138;2022-10-16T06:20:20;0.60;;;0.50;;
12181;SDS011;6154;51.550;12.138;2022-10-16T06:22:49;0.80;;;0.70;;
12181;SDS011;6154;51.550;12.138;2022-10-16T06:25:17;0.90;;;0.57;;
12181;SDS011;6154;51.550;12.138;2022-10-16T06:27:47;2.15;;;0.60;;
12181;SDS011;6154;51.550;12.138;2022-10-16T06:30:27;1.67;;;0.40;;
12181;SDS011;6154;51.550;12.138;2022-10-16T06:32:55;0.65;;;0.47;;
12181;SDS011;6154;51.550;12.138;2022-10-16T06:35:23;0.40;;;0.40;;
12181;SDS011;6154;51.550;12.138;2022-10-16T06:37:52;0.50;;;0.47;;
12181;SDS011;6154;51.550;12.138;2022-10-16T06:40:20;0.55;;;0.55;;
12181;SDS011;6154;51.550;12.138;2022-10-16T06:42:50;0.30;;;0.30;;
12181;SDS011;6154;51.550;12.138;2022-10-16T06:45:19;0.40;;;0.40;;
12181;SDS011;6154;51.550;12.138;2022-10-16T06:47:47;1.30;;;0.60;;
12181;SDS011;6154;51.550;12.138;2022-10-16T06:50:16;0.50;;;0.50;;
12181;SDS011;6154;51.550;12.138;2022-10-16T06:52:44;0.57;;;0.57;;
12181;SDS011;6154;51.550;12.138;2022-10-16T06:55:13;0.73;;;0.65;;
12181;SDS011;6154;51.550;12.138;2022-10-16T06:57:42;0.60;;;0.60;;
12181;SDS011;6154;51.550;12.138;2022-10-16T07:00:12;0.90;;;0.60;;
12181;SDS011;6154;51.550;12.138;2022-10-16T07:02:41;0.68;;;0.68;;
12181;SDS011;6154;51.550;12.138;2022-10-16T07:05:09;1.35;;;1.25;;
12181;SDS011;6154;51.550;12.138;2022-10-16T07:07:37;1.00;;;0.75;;
12181;SDS011;6154;51.550;12.138;2022-10-16T07:10:08;0.60;;;0.60;;
12181;SDS011;6154;51.550;12.138;2022-10-16T07:12:36;2.15;;;0.98;;
12181;SDS011;6154;51.550;12.138;2022-10-16T07:15:05;0.88;;;0.65;;
12181;SDS011;6154;51.550;12.138;2022-10-16T07:17:35;0.50;;;0.50;;
12181;SDS011;6154;51.550;12.138;2022-10-16T07:20:04;0.80;;;0.80;;
12181;SDS011;6154;51.550;12.138;2022-10-16T07:22:34;0.93;;;0.80;;
12181;SDS011;6154;51.550;12.138;2022-10-16T07:25:03;2.33;;;0.85;;
12181;SDS011;6154;51.550;12.138;2022-10-16T07:27:32;1.52;;;0.70;;
12181;SDS011;6154;51.550;12.138;2022-10-16T07:30:00;1.35;;;0.60;;
12181;SDS011;6154;51.550;12.138;2022-10-16T07:32:35;0.50;;;0.50;;
12181;SDS011;6154;51.550;12.138;2022-10-16T07:35:04;0.85;;;0.65;;
12181;SDS011;6154;51.550;12.138;2022-10-16T07:37:37;0.43;;;0.40;;
12181;SDS011;6154;51.550;12.138;2022-10-16T07:40:05;0.50;;;0.50;;
12181;SDS011;6154;51.550;12.138;2022-10-16T07:42:57;0.70;;;0.57;;
12181;SDS011;6154;51.550;12.138;2022-10-16T07:45:25;3.20;;;0.90;;
12181;SDS011;6154;51.550;12.138;2022-10-16T07:47:55;0.70;;;0.62;;
12181;SDS011;6154;51.550;12.138;2022-10-16T07:50:23;0.90;;;0.57;;
12181;SDS011;6154;51.550;12.138;2022-10-16T07:52:52;1.05;;;0.60;;
12181;SDS011;6154;51.550;12.138;2022-10-16T07:55:20;0.40;;;0.40;;
12181;SDS011;6154;51.550;12.138;2022-10-16T07:57:48;1.30;;;0.60;;
12181;SDS011;6154;51.550;12.138;2022-10-16T08:00:17;0.80;;;0.60;;
12181;SDS011;6154;51.550;12.138;2022-10-16T08:02:46;0.40;;;0.40;;
12181;SDS011;6154;51.550;12.138;2022-10-16T08:05:15;0.40;;;0.40;;
12181;SDS011;6154;51.550;12.138;2022-10-16T08:07:47;0.75;;;0.37;;
12181;SDS011;6154;51.550;12.138;2022-10-16T08:10:16;0.45;;;0.45;;
12181;SDS011;6154;51.550;12.138;2022-10-16T08:12:46;0.40;;;0.40;;
12181;SDS011;6154;51.550;12.138;2022-10-16T08:15:14;0.55;;;0.40;;
12181;SDS011;6154;51.550;12.138;2022-10-16T08:17:43;2.62;;;0.90;;
12181;SDS011;6154;51.550;12.138;2022-10-16T08:20:11;0.60;;;0.60;;
12181;SDS011;6154;51.550;12.138;2022-10-16T08:22:41;1.23;;;0.43;;
12181;SDS011;6154;51.550;12.138;2022-10-16T08:25:10;0.47;;;0.47;;
12181;SDS011;6154;51.550;12.138;2022-10-16T08:27:38;0.57;;;0.50;;
12181;SDS011;6154;51.550;12.138;2022-10-16T08:30:07;0.60;;;0.50;;
12181;SDS011;6154;51.550;12.138;2022-10-16T08:32:36;0.75;;;0.50;;
12181;SDS011;6154;51.550;12.138;2022-10-16T08:35:05;1.45;;;0.60;;
12181;SDS011;6154;51.550;12.138;2022-10-16T08:37:33;0.40;;;0.22;;
12181;SDS011;6154;51.550;12.138;2022-10-16T08:40:04;0.40;;;0.40;;
12181;SDS011;6154;51.550;12.138;2022-10-16T08:42:38;1.05;;;0.40;;
12181;SDS011;6154;51.550;12.138;2022-10-16T08:45:19;0.20;;;0.20;;
12181;SDS011;6154;51.550;12.138;2022-10-16T08:48:00;1.00;;;0.30;;
12181;SDS011;6154;51.550;12.138;2022-10-16T08:50:38;1.27;;;0.75;;
12181;SDS011;6154;51.550;12.138;2022-10-16T08:53:10;1.70;;;0.65;;
12181;SDS011;6154;51.550;12.138;2022-10-16T08:55:46;0.60;;;0.45;;
12181;SDS011;6154;51.550;12.138;2022-10-16T08:58:18;0.60;;;0.60;;
12181;SDS011;6154;51.550;12.138;2022-10-16T09:00:49;0.88;;;0.40;;
12181;SDS011;6154;51.550;12.138;2022-10-16T09:03:23;1.85;;;0.50;;
12181;SDS011;6154;51.550;12.138;2022-10-16T09:06:07;1.08;;;0.55;;
12181;SDS011;6154;51.550;12.138;2022-10-16T09:08:47;0.40;;;0.40;;
12181;SDS011;6154;51.550;12.138;2022-10-16T09:11:33;0.80;;;0.50;;
12181;SDS011;6154;51.550;12.138;2022-10-16T09:14:17;0.88;;;0.30;;
12181;SDS011;6154;51.550;12.138;2022-10-16T09:17:06;0.95;;;0.60;;
12181;SDS011;6154;51.550;12.138;2022-10-16T09:19:49;0.45;;;0.40;;
12181;SDS011;6154;51.550;12.138;2022-10-16T09:22:21;0.60;;;0.32;;
12181;SDS011;6154;51.550;12.138;2022-10-16T09:24:54;0.20;;;0.20;;
12181;SDS011;6154;51.550;12.138;2022-10-16T09:27:28;0.80;;;0.50;;
12181;SDS011;6154;51.550;12.138;2022-10-16T09:29:57;1.55;;;0.30;;
12181;SDS011;6154;51.550;12.138;2022-10-16T09:32:26;0.43;;;0.30;;
12181;SDS011;6154;51.550;12.138;2022-10-16T09:34:56;0.17;;;0.17;;
12181;SDS011;6154;51.550;12.138;2022-10-16T09:37:25;0.28;;;0.28;;
12181;SDS011;6154;51.550;12.138;2022-10-16T09:39:54;0.20;;;0.20;;
12181;SDS011;6154;51.550;12.138;2022-10-16T09:42:24;0.28;;;0.28;;
12181;SDS011;6154;51.550;12.138;2022-10-16T09:44:59;6.62;;;0.30;;
12181;SDS011;6154;51.550;12.138;2022-10-16T09:47:28;0.20;;;0.20;;
12181;SDS011;6154;51.550;12.138;2022-10-16T09:49:59;1.55;;;0.20;;
12181;SDS011;6154;51.550;12.138;2022-10-16T09:52:29;0.20;;;0.20;;
12181;SDS011;6154;51.550;12.138;2022-10-16T09:54:59;0.28;;;0.28;;
12181;SDS011;6154;51.550;12.138;2022-10-16T09:57:28;0.60;;;0.20;;
12181;SDS011;6154;51.550;12.138;2022-10-16T09:59:58;0.20;;;0.10;;
12181;SDS011;6154;51.550;12.138;2022-10-16T10:02:31;0.20;;;0.20;;
12181;SDS011;6154;51.550;12.138;2022-10-16T10:05:03;0.60;;;0.10;;
12181;SDS011;6154;51.550;12.138;2022-10-16T10:07:35;0.55;;;0.43;;
12181;SDS011;6154;51.550;12.138;2022-10-16T10:10:18;0.65;;;0.45;;
12181;SDS011;6154;51.550;12.138;2022-10-16T10:12:48;0.40;;;0.30;;
12181;SDS011;6154;51.550;12.138;2022-10-16T10:15:23;0.20;;;0.20;;
12181;SDS011;6154;51.550;12.138;2022-10-16T10:17:53;0.43;;;0.25;;
12181;SDS011;6154;51.550;12.138;2022-10-16T10:20:24;0.20;;;0.20;;
12181;SDS011;6154;51.550;12.138;2022-10-16T10:22:54;0.30;;;0.30;;
12181;SDS011;6154;51.550;12.138;2022-10-16T10:25:30;3.15;;;0.10;;
12181;SDS011;6154;51.550;12.138;2022-10-16T10:31:20;1.37;;;1.17;;
12181;SDS011;6154;51.550;12.138;2022-10-16T10:33:57;0.43;;;0.20;;
12181;SDS011;6154;51.550;12.138;2022-10-16T10:36:34;0.37;;;0.30;;
12181;SDS011;6154;51.550;12.138;2022-10-16T10:39:05;0.10;;;0.10;;
12181;SDS011;6154;51.550;12.138;2022-10-16T10:44:47;0.60;;;0.40;;
12181;SDS011;6154;51.550;12.138;2022-10-16T10:47:37;0.75;;;0.20;;
12181;SDS011;6154;51.550;12.138;2022-10-16T10:50:14;0.00;;;0.00;;
12181;SDS011;6154;51.550;12.138;2022-10-16T10:52:53;0.40;;;0.20;;
12181;SDS011;6154;51.550;12.138;2022-10-16T10:55:31;0.28;;;0.28;;
12181;SDS011;6154;51.550;12.138;2022-10-16T11:01:04;0.20;;;0.20;;
12181;SDS011;6154;51.550;12.138;2022-10-16T11:03:46;0.10;;;0.10;;
12181;SDS011;6154;51.550;12.138;2022-10-16T11:06:48;0.37;;;0.28;;
12181;SDS011;6154;51.550;12.138;2022-10-16T11:09:30;0.30;;;0.13;;
12181;SDS011;6154;51.550;12.138;2022-10-16T11:12:04;0.20;;;0.20;;
12181;SDS011;6154;51.550;12.138;2022-10-16T11:14:40;0.50;;;0.20;;
12181;SDS011;6154;51.550;12.138;2022-10-16T11:17:15;0.60;;;0.25;;
12181;SDS011;6154;51.550;12.138;2022-10-16T11:19:53;0.37;;;0.30;;
12181;SDS011;6154;51.550;12.138;2022-10-16T11:22:27;1.20;;;0.30;;
12181;SDS011;6154;51.550;12.138;2022-10-16T11:25:02;0.10;;;0.10;;
12181;SDS011;6154;51.550;12.138;2022-10-16T11:27:41;0.28;;;0.10;;
12181;SDS011;6154;51.550;12.138;2022-10-16T11:30:14;0.13;;;0.13;;
12181;SDS011;6154;51.550;12.138;2022-10-16T11:32:52;0.17;;;0.17;;
12181;SDS011;6154;51.550;12.138;2022-10-16T11:35:33;1.35;;;0.25;;
12181;SDS011;6154;51.550;12.138;2022-10-16T11:38:10;0.20;;;0.20;;
12181;SDS011;6154;51.550;12.138;2022-10-16T11:40:43;1.00;;;0.10;;
12181;SDS011;6154;51.550;12.138;2022-10-16T11:43:17;0.30;;;0.17;;
12181;SDS011;6154;51.550;12.138;2022-10-16T11:45:51;0.62;;;0.20;;
12181;SDS011;6154;51.550;12.138;2022-10-16T11:48:23;1.50;;;0.10;;
12181;SDS011;6154;51.550;12.138;2022-10-16T11:51:00;0.50;;;0.17;;
12181;SDS011;6154;51.550;12.138;2022-10-16T11:53:39;0.15;;;0.15;;
12181;SDS011;6154;51.550;12.138;2022-10-16T11:56:14;0.10;;;0.10;;
12181;SDS011;6154;51.550;12.138;2022-10-16T11:58:47;0.20;;;0.20;;
12181;SDS011;6154;51.550;12.138;2022-10-16T12:01:26;0.20;;;0.10;;
12181;SDS011;6154;51.550;12.138;2022-10-16T12:04:11;0.20;;;0.20;;
12181;SDS011;6154;51.550;12.138;2022-10-16T12:06:50;0.10;;;0.10;;
12181;SDS011;6154;51.550;12.138;2022-10-16T12:09:24;0.28;;;0.28;;
12181;SDS011;6154;51.550;12.138;2022-10-16T12:11:55;0.10;;;0.10;;
12181;SDS011;6154;51.550;12.138;2022-10-16T12:14:34;0.30;;;0.17;;
12181;SDS011;6154;51.550;12.138;2022-10-16T12:17:25;0.15;;;0.15;;
12181;SDS011;6154;51.550;12.138;2022-10-16T12:19:58;1.10;;;0.30;;
12181;SDS011;6154;51.550;12.138;2022-10-16T12:22:30;0.35;;;0.20;;
12181;SDS011;6154;51.550;12.138;2022-10-16T12:25:05;0.20;;;0.20;;
12181;SDS011;6154;51.550;12.138;2022-10-16T12:27:53;2.92;;;0.20;;
12181;SDS011;6154;51.550;12.138;2022-10-16T12:30:23;0.50;;;0.40;;
12181;SDS011;6154;51.550;12.138;2022-10-16T12:32:58;0.90;;;0.20;;
12181;SDS011;6154;51.550;12.138;2022-10-16T12:35:30;0.10;;;0.10;;
12181;SDS011;6154;51.550;12.138;2022-10-16T12:38:06;0.20;;;0.20;;
12181;SDS011;6154;51.550;12.138;2022-10-16T12:40:41;0.20;;;0.20;;
12181;SDS011;6154;51.550;12.138;2022-10-16T12:43:13;0.25;;;0.20;;
12181;SDS011;6154;51.550;12.138;2022-10-16T12:46:00;0.35;;;0.22;;
12181;SDS011;6154;51.550;12.138;2022-10-16T12:48:30;0.10;;;0.10;;
12181;SDS011;6154;51.550;12.138;2022-10-16T12:51:23;0.10;;;0.10;;
12181;SDS011;6154;51.550;12.138;2022-10-16T12:54:02;0.75;;;0.30;;
12181;SDS011;6154;51.550;12.138;2022-10-16T12:56:36;0.10;;;0.10;;
12181;SDS011;6154;51.550;12.138;2022-10-16T12:59:16;0.28;;;0.28;;
12181;SDS011;6154;51.550;12.138;2022-10-16T13:01:59;0.62;;;0.30;;
12181;SDS011;6154;51.550;12.138;2022-10-16T13:04:46;0.20;;;0.20;;
12181;SDS011;6154;51.550;12.138;2022-10-16T13:07:32;0.10;;;0.10;;
12181;SDS011;6154;51.550;12.138;2022-10-16T13:10:13;0.20;;;0.20;;
12181;SDS011;6154;51.550;12.138;2022-10-16T13:12:55;0.15;;;0.10;;
12181;SDS011;6154;51.550;12.138;2022-10-16T13:15:51;0.10;;;0.10;;
12181;SDS011;6154;51.550;12.138;2022-10-16T13:18:31;0.20;;;0.20;;
12181;SDS011;6154;51.550;12.138;2022-10-16T13:21:16;0.10;;;0.10;;
12181;SDS011;6154;51.550;12.138;2022-10-16T13:23:54;0.20;;;0.20;;
12181;SDS011;6154;51.550;12.138;2022-10-16T13:26:34;0.40;;;0.15;;
12181;SDS011;6154;51.550;12.138;2022-10-16T13:29:14;0.10;;;0.10;;
12181;SDS011;6154;51.550;12.138;2022-10-16T13:31:43;0.10;;;0.10;;
12181;SDS011;6154;51.550;12.138;2022-10-16T13:34:12;0.10;;;0.10;;
12181;SDS011;6154;51.550;12.138;2022-10-16T13:36:44;0.10;;;0.10;;
12181;SDS011;6154;51.550;12.138;2022-10-16T13:39:15;0.50;;;0.30;;
12181;SDS011;6154;51.550;12.138;2022-10-16T13:42:00;0.20;;;0.17;;
12181;SDS011;6154;51.550;12.138;2022-10-16T13:44:36;0.00;;;0.00;;
12181;SDS011;6154;51.550;12.138;2022-10-16T13:47:15;0.30;;;0.20;;
12181;SDS011;6154;51.550;12.138;2022-10-16T13:49:45;0.20;;;0.20;;
12181;SDS011;6154;51.550;12.138;2022-10-16T13:52:18;0.62;;;0.20;;
12181;SDS011;6154;51.550;12.138;2022-10-16T13:54:48;0.10;;;0.10;;
12181;SDS011;6154;51.550;12.138;2022-10-16T13:57:17;0.28;;;0.13;;
12181;SDS011;6154;51.550;12.138;2022-10-16T13:59:53;0.28;;;0.10;;
12181;SDS011;6154;51.550;12.138;2022-10-16T14:02:22;0.20;;;0.20;;
12181;SDS011;6154;51.550;12.138;2022-10-16T14:04:55;6.07;;;0.22;;
12181;SDS011;6154;51.550;12.138;2022-10-16T14:07:26;4.37;;;0.30;;
12181;SDS011;6154;51.550;12.138;2022-10-16T14:09:57;0.20;;;0.20;;
12181;SDS011;6154;51.550;12.138;2022-10-16T14:12:30;0.10;;;0.10;;
12181;SDS011;6154;51.550;12.138;2022-10-16T14:14:59;0.28;;;0.25;;
12181;SDS011;6154;51.550;12.138;2022-10-16T14:17:30;0.30;;;0.30;;
12181;SDS011;6154;51.550;12.138;2022-10-16T14:20:00;0.40;;;0.30;;
12181;SDS011;6154;51.550;12.138;2022-10-16T14:22:34;0.60;;;0.30;;
12181;SDS011;6154;51.550;12.138;2022-10-16T14:25:16;1.45;;;0.55;;
12181;SDS011;6154;51.550;12.138;2022-10-16T14:27:58;0.75;;;0.60;;
12181;SDS011;6154;51.550;12.138;2022-10-16T14:30:29;0.22;;;0.22;;
12181;SDS011;6154;51.550;12.138;2022-10-16T14:33:02;0.20;;;0.20;;
12181;SDS011;6154;51.550;12.138;2022-10-16T14:35:32;0.22;;;0.22;;
12181;SDS011;6154;51.550;12.138;2022-10-16T14:38:03;1.17;;;0.30;;
12181;SDS011;6154;51.550;12.138;2022-10-16T14:40:34;0.10;;;0.10;;
12181;SDS011;6154;51.550;12.138;2022-10-16T14:43:06;0.45;;;0.25;;
12181;SDS011;6154;51.550;12.138;2022-10-16T14:45:34;0.28;;;0.20;;
12181;SDS011;6154;51.550;12.138;2022-10-16T14:48:04;0.25;;;0.20;;
12181;SDS011;6154;51.550;12.138;2022-10-16T14:50:45;0.20;;;0.20;;
12181;SDS011;6154;51.550;12.138;2022-10-16T14:53:14;0.35;;;0.30;;
12181;SDS011;6154;51.550;12.138;2022-10-16T14:55:42;0.43;;;0.30;;
12181;SDS011;6154;51.550;12.138;2022-10-16T14:58:14;1.92;;;0.20;;
12181;SDS011;6154;51.550;12.138;2022-10-16T15:00:44;0.20;;;0.20;;
12181;SDS011;6154;51.550;12.138;2022-10-16T15:03:13;0.80;;;0.30;;
12181;SDS011;6154;51.550;12.138;2022-10-16T15:05:41;0.40;;;0.20;;
12181;SDS011;6154;51.550;12.138;2022-10-16T15:08:10;0.40;;;0.13;;
12181;SDS011;6154;51.550;12.138;2022-10-16T15:10:40;0.20;;;0.20;;
12181;SDS011;6154;51.550;12.138;2022-10-16T15:13:11;0.20;;;0.20;;
12181;SDS011;6154;51.550;12.138;2022-10-16T15:15:43;0.20;;;0.20;;
12181;SDS011;6154;51.550;12.138;2022-10-16T15:18:12;1.25;;;0.25;;
12181;SDS011;6154;51.550;12.138;2022-10-16T15:20:47;0.20;;;0.20;;
12181;SDS011;6154;51.550;12.138;2022-10-16T15:23:17;3.65;;;2.55;;
12181;SDS011;6154;51.550;12.138;2022-10-16T15:25:47;1.50;;;0.85;;
12181;SDS011;6154;51.550;12.138;2022-10-16T15:28:17;2.28;;;1.80;;
12181;SDS011;6154;51.550;12.138;2022-10-16T15:30:48;3.95;;;3.35;;